createdAt,value
2022-08-10T00:01:47.759Z,1.60
2022-08-10T00:04:21.502Z,1.85
2022-08-10T00:06:49.390Z,1.90
2022-08-10T00:09:16.072Z,1.95
2022-08-10T00:11:42.872Z,1.95
2022-08-10T00:14:09.767Z,1.80
2022-08-10T00:16:36.522Z,1.92
2022-08-10T00:19:03.429Z,2.17
2022-08-10T00:21:30.169Z,1.75
2022-08-10T00:23:56.890Z,1.90
2022-08-10T00:26:23.858Z,2.05
2022-08-10T00:28:50.617Z,1.85
2022-08-10T00:31:17.369Z,1.65
2022-08-10T00:33:44.119Z,1.88
2022-08-10T00:36:10.880Z,1.80
2022-08-10T00:38:37.813Z,2.00
2022-08-10T00:41:04.658Z,1.77
2022-08-10T00:43:31.419Z,1.83
2022-08-10T00:45:59.824Z,1.70
2022-08-10T00:48:31.007Z,1.92
2022-08-10T00:51:01.398Z,1.90
2022-08-10T00:53:29.228Z,1.88
2022-08-10T00:57:12.603Z,1.70
2022-08-10T00:58:43.724Z,2.00
2022-08-10T01:02:08.567Z,1.77
2022-08-10T01:04:57.501Z,2.13
2022-08-10T01:06:59.640Z,2.05
2022-08-10T01:09:38.613Z,2.17
2022-08-10T01:12:39.223Z,2.03
2022-08-10T01:15:11.224Z,2.03
2022-08-10T01:18:03.811Z,1.90
2022-08-10T01:20:39.506Z,2.20
2022-08-10T01:23:18.458Z,2.03
2022-08-10T01:26:11.767Z,1.80
2022-08-10T01:29:08.023Z,2.30
2022-08-10T01:31:40.840Z,2.10
2022-08-10T01:34:33.247Z,1.90
2022-08-10T01:37:05.288Z,2.08
2022-08-10T01:39:39.312Z,2.00
2022-08-10T01:42:07.349Z,1.95
2022-08-10T01:44:41.047Z,2.00
2022-08-10T01:47:33.727Z,1.98
2022-08-10T01:50:10.255Z,2.60
2022-08-10T01:52:40.718Z,2.08
2022-08-10T01:55:09.061Z,2.13
2022-08-10T01:57:38.039Z,2.05
2022-08-10T02:00:06.398Z,2.07
2022-08-10T02:02:35.035Z,2.35
2022-08-10T02:05:05.435Z,2.38
2022-08-10T02:07:34.586Z,2.15
2022-08-10T02:10:09.749Z,1.90
2022-08-10T02:12:38.399Z,2.45
2022-08-10T02:15:12.880Z,2.28
2022-08-10T02:17:58.232Z,1.92
2022-08-10T02:20:37.833Z,2.13
2022-08-10T02:23:11.723Z,2.25
2022-08-10T02:25:43.417Z,2.03
2022-08-10T02:28:27.293Z,2.50
2022-08-10T02:31:06.552Z,2.38
2022-08-10T02:33:37.340Z,2.80
2022-08-10T02:36:11.950Z,2.60
2022-08-10T02:38:57.433Z,1.73
2022-08-10T02:45:14.590Z,2.03
2022-08-10T02:45:23.148Z,2.28
2022-08-10T02:47:58.802Z,2.20
2022-08-10T02:50:28.271Z,2.40
2022-08-10T02:53:06.561Z,1.70
2022-08-10T02:55:48.519Z,2.15
2022-08-10T02:58:25.826Z,2.40
2022-08-10T03:00:55.892Z,2.10
2022-08-10T03:03:28.788Z,2.03
2022-08-10T03:06:05.841Z,2.58
2022-08-10T03:08:36.587Z,2.55
2022-08-10T03:11:05.321Z,2.78
2022-08-10T03:13:33.766Z,2.40
2022-08-10T03:16:03.077Z,2.45
2022-08-10T03:18:32.148Z,2.13
2022-08-10T03:20:59.638Z,2.00
2022-08-10T03:23:28.107Z,2.20
2022-08-10T03:25:57.277Z,2.55
2022-08-10T03:28:27.332Z,2.40
2022-08-10T03:33:24.369Z,2.40
2022-08-10T03:36:43.072Z,2.70
2022-08-10T03:38:40.704Z,2.15
2022-08-10T03:41:11.797Z,2.70
2022-08-10T03:43:46.558Z,2.40
2022-08-10T03:46:15.528Z,2.47
2022-08-10T03:48:49.002Z,2.47
2022-08-10T03:51:19.027Z,2.28
2022-08-10T03:54:05.663Z,2.43
2022-08-10T03:56:36.320Z,2.50
2022-08-10T03:59:05.085Z,2.42
2022-08-10T04:02:44.494Z,2.50
2022-08-10T04:04:24.700Z,2.30
2022-08-10T04:06:57.958Z,2.40
2022-08-10T04:09:54.765Z,2.72
2022-08-10T04:12:21.070Z,2.53
2022-08-10T04:14:51.365Z,3.67
2022-08-10T04:18:04.262Z,2.50
2022-08-10T04:20:34.933Z,2.83
2022-08-10T04:23:06.657Z,2.58
2022-08-10T04:25:34.891Z,2.85
2022-08-10T04:28:03.245Z,2.53
2022-08-10T04:30:32.314Z,2.80
2022-08-10T04:33:02.322Z,2.72
2022-08-10T04:37:59.501Z,2.80
2022-08-10T04:40:30.499Z,2.67
2022-08-10T04:43:01.420Z,3.00
2022-08-10T04:45:48.433Z,2.60
2022-08-10T04:48:43.270Z,3.03
2022-08-10T04:51:17.044Z,2.70
2022-08-10T04:54:05.070Z,2.78
2022-08-10T04:56:36.185Z,2.70
2022-08-10T04:59:05.339Z,2.70
2022-08-10T05:02:21.892Z,3.10
2022-08-10T05:04:37.404Z,3.17
2022-08-10T05:07:16.289Z,3.47
2022-08-10T05:10:01.155Z,3.90
2022-08-10T05:12:30.306Z,2.90
2022-08-10T05:14:57.254Z,3.20
2022-08-10T05:17:24.757Z,2.75
2022-08-10T05:20:03.804Z,2.83
2022-08-10T05:22:36.715Z,2.80
2022-08-10T05:25:05.374Z,2.83
2022-08-10T05:27:32.241Z,3.28
2022-08-10T05:30:01.791Z,2.80
2022-08-10T05:32:31.845Z,3.17
2022-08-10T05:34:58.692Z,3.10
2022-08-10T05:38:09.833Z,3.45
2022-08-10T05:40:13.857Z,3.83
2022-08-10T05:42:42.081Z,4.15
2022-08-10T05:45:25.136Z,3.70
2022-08-10T05:48:55.763Z,3.25
2022-08-10T05:50:39.236Z,3.00
2022-08-10T05:54:01.152Z,3.45
2022-08-10T05:55:53.184Z,2.88
2022-08-10T05:58:20.153Z,2.55
2022-08-10T06:00:54.473Z,2.63
2022-08-10T06:03:27.818Z,2.30
2022-08-10T06:05:57.037Z,2.00
2022-08-10T06:08:31.729Z,2.30
2022-08-10T06:12:23.892Z,2.00
2022-08-10T06:14:13.853Z,1.77
2022-08-10T06:16:45.261Z,2.15
2022-08-10T06:19:14.651Z,1.73
2022-08-10T06:22:00.349Z,1.90
2022-08-10T06:24:31.004Z,1.80
2022-08-10T06:27:01.460Z,1.88
2022-08-10T06:29:32.269Z,2.00
2022-08-10T06:32:00.829Z,1.55
2022-08-10T06:34:32.282Z,1.88
2022-08-10T06:37:01.802Z,1.77
2022-08-10T06:39:36.898Z,1.60
2022-08-10T06:42:16.328Z,1.30
2022-08-10T06:45:08.158Z,1.70
2022-08-10T06:47:39.797Z,1.45
2022-08-10T06:50:14.056Z,1.23
2022-08-10T06:52:47.042Z,1.70
2022-08-10T06:55:16.601Z,1.50
2022-08-10T06:58:00.087Z,1.60
2022-08-10T07:00:32.499Z,1.58
2022-08-10T07:03:08.801Z,1.65
2022-08-10T07:05:39.382Z,1.90
2022-08-10T07:08:07.670Z,1.80
2022-08-10T07:10:41.100Z,1.30
2022-08-10T07:14:16.998Z,1.67
2022-08-10T07:16:07.447Z,1.50
2022-08-10T07:18:36.593Z,1.60
2022-08-10T07:21:04.859Z,1.42
2022-08-10T07:23:58.295Z,1.60
2022-08-10T07:26:21.519Z,1.50
2022-08-10T07:28:51.072Z,1.85
2022-08-10T07:34:09.759Z,1.50
2022-08-10T07:36:38.098Z,1.70
2022-08-10T07:39:06.090Z,1.70
2022-08-10T07:41:34.435Z,1.42
2022-08-10T07:44:04.701Z,1.52
2022-08-10T07:46:33.857Z,2.10
2022-08-10T07:49:15.288Z,1.58
2022-08-10T07:51:48.127Z,1.80
2022-08-10T07:54:24.159Z,1.70
2022-08-10T07:56:53.927Z,1.60
2022-08-10T07:59:25.296Z,1.77
2022-08-10T08:01:55.474Z,1.58
2022-08-10T08:04:24.378Z,1.75
2022-08-10T08:06:53.777Z,1.70
2022-08-10T08:09:22.305Z,1.55
2022-08-10T08:11:52.685Z,1.83
2022-08-10T08:14:22.078Z,2.22
2022-08-10T08:19:28.473Z,2.03
2022-08-10T08:24:04.586Z,1.60
2022-08-10T08:24:55.478Z,1.87
2022-08-10T08:27:23.988Z,1.70
2022-08-10T08:29:52.256Z,1.60
2022-08-10T08:32:22.797Z,1.38
2022-08-10T08:35:11.916Z,1.80
2022-08-10T08:38:33.407Z,1.52
2022-08-10T08:40:33.924Z,1.58
2022-08-10T08:43:00.654Z,1.63
2022-08-10T08:46:00.582Z,1.58
2022-08-10T08:48:39.072Z,1.40
2022-08-10T08:52:07.775Z,1.58
2022-08-10T08:54:12.168Z,1.50
2022-08-10T08:57:00.609Z,1.48
2022-08-10T08:59:55.020Z,1.60
2022-08-10T09:03:00.010Z,1.40
2022-08-10T09:06:00.243Z,1.42
2022-08-10T09:08:41.570Z,1.40
2022-08-10T09:11:14.544Z,1.70
2022-08-10T09:13:47.518Z,1.30
2022-08-10T09:16:24.783Z,1.40
2022-08-10T09:19:03.948Z,1.90
2022-08-10T09:24:27.929Z,1.80
2022-08-10T09:26:57.524Z,2.00
2022-08-10T09:29:27.853Z,1.63
2022-08-10T09:36:16.276Z,1.60
2022-08-10T09:36:22.614Z,1.42
2022-08-10T09:38:18.541Z,1.20
2022-08-10T09:41:00.497Z,1.65
2022-08-10T09:43:59.169Z,1.95
2022-08-10T09:46:50.417Z,1.88
2022-08-10T09:49:53.215Z,1.52
2022-08-10T09:52:32.262Z,1.50
2022-08-10T09:56:18.046Z,1.38
2022-08-10T09:58:38.292Z,1.55
2022-08-10T10:02:03.200Z,1.60
2022-08-10T10:04:30.816Z,1.40
2022-08-10T10:07:03.689Z,1.77
2022-08-10T10:09:40.074Z,1.60
2022-08-10T10:12:41.988Z,1.30
2022-08-10T10:15:43.268Z,1.45
2022-08-10T10:18:34.830Z,1.42
2022-08-10T10:21:04.459Z,1.38
2022-08-10T10:24:23.517Z,1.52
2022-08-10T10:27:03.669Z,1.50
2022-08-10T10:29:57.290Z,1.30
2022-08-10T10:32:32.083Z,1.67
2022-08-10T10:35:25.398Z,1.60
2022-08-10T10:38:01.150Z,1.30
2022-08-10T10:40:38.888Z,1.75
2022-08-10T10:43:24.228Z,1.65
2022-08-10T10:46:23.500Z,1.33
2022-08-10T10:49:17.868Z,1.23
2022-08-10T10:52:13.661Z,1.42
2022-08-10T10:54:55.763Z,1.40
2022-08-10T10:58:00.503Z,1.58
2022-08-10T11:00:27.859Z,1.48
2022-08-10T11:03:13.161Z,1.20
2022-08-10T11:05:55.257Z,1.30
2022-08-10T11:08:29.708Z,1.42
2022-08-10T11:11:20.357Z,1.30
2022-08-10T11:14:29.740Z,1.55
2022-08-10T11:17:19.111Z,1.42
2022-08-10T11:20:01.575Z,1.35
2022-08-10T11:22:56.447Z,1.50
2022-08-10T11:25:26.203Z,1.10
2022-08-10T11:28:11.019Z,1.17
2022-08-10T11:30:50.290Z,1.40
2022-08-10T11:33:32.627Z,1.48
2022-08-10T11:36:10.740Z,1.30
2022-08-10T11:38:57.597Z,1.35
2022-08-10T11:42:07.740Z,1.30
2022-08-10T11:44:33.599Z,1.45
2022-08-10T11:47:17.846Z,1.30
2022-08-10T11:50:03.547Z,1.30
2022-08-10T11:52:44.924Z,1.35
2022-08-10T11:55:17.982Z,1.30
2022-08-10T11:57:53.365Z,1.05
2022-08-10T12:00:22.614Z,1.33
2022-08-10T12:03:03.491Z,1.40
2022-08-10T12:05:46.572Z,1.35
2022-08-10T12:10:02.099Z,1.45
2022-08-10T12:11:12.679Z,1.67
2022-08-10T12:14:20.242Z,1.40
2022-08-10T12:19:27.662Z,1.83
2022-08-10T12:22:09.211Z,1.35
2022-08-10T12:24:59.180Z,1.38
2022-08-10T12:27:48.873Z,1.80
2022-08-10T12:30:17.752Z,1.75
2022-08-10T12:33:07.846Z,1.35
2022-08-10T12:36:14.846Z,1.48
2022-08-10T12:39:11.050Z,1.83
2022-08-10T12:41:45.596Z,1.50
2022-08-10T12:44:18.431Z,1.35
2022-08-10T12:46:48.049Z,1.23
2022-08-10T12:49:33.808Z,1.30
2022-08-10T12:52:07.397Z,1.60
2022-08-10T12:54:38.512Z,1.50
2022-08-10T12:57:12.374Z,1.38
2022-08-10T12:59:46.072Z,1.60
2022-08-10T13:02:21.560Z,1.35
2022-08-10T13:04:51.458Z,1.38
2022-08-10T13:08:25.687Z,1.40
2022-08-10T13:10:17.004Z,1.40
2022-08-10T13:15:49.657Z,1.23
2022-08-10T13:18:25.469Z,1.70
2022-08-10T13:20:55.230Z,1.40
2022-08-10T13:23:28.472Z,1.60
2022-08-10T13:25:58.273Z,1.90
2022-08-10T13:28:39.907Z,1.30
2022-08-10T13:31:16.734Z,1.50
2022-08-10T13:34:38.978Z,1.30
2022-08-10T13:36:48.601Z,1.55
2022-08-10T13:39:20.534Z,1.38
2022-08-10T13:41:49.487Z,1.50
2022-08-10T13:44:28.980Z,1.65
2022-08-10T13:46:57.064Z,1.33
2022-08-10T13:49:24.237Z,1.35
2022-08-10T13:51:54.500Z,1.30
2022-08-10T13:54:29.263Z,1.35
2022-08-10T13:56:57.076Z,1.40
2022-08-10T14:00:34.843Z,1.38
2022-08-10T14:02:23.310Z,1.70
2022-08-10T14:04:51.604Z,1.15
2022-08-10T14:07:19.849Z,1.30
2022-08-10T14:09:50.303Z,1.50
2022-08-10T14:12:18.807Z,1.15
2022-08-10T14:15:00.939Z,1.25
2022-08-10T14:17:28.349Z,1.23
2022-08-10T14:19:59.441Z,1.48
2022-08-10T14:22:33.676Z,1.42
2022-08-10T14:25:13.061Z,1.10
2022-08-10T14:28:02.172Z,1.30
2022-08-10T14:30:33.275Z,1.40
2022-08-10T14:36:21.558Z,1.15
2022-08-10T14:38:29.071Z,1.48
2022-08-10T14:40:59.198Z,1.40
2022-08-10T14:43:31.021Z,1.45
2022-08-10T14:46:05.989Z,1.33
2022-08-10T14:48:39.554Z,1.20
2022-08-10T14:51:09.434Z,1.40
2022-08-10T14:53:38.519Z,1.15
2022-08-10T14:59:06.224Z,1.05
2022-08-10T15:02:01.289Z,1.13
2022-08-10T15:04:24.835Z,1.05
2022-08-10T15:07:01.332Z,1.10
2022-08-10T15:10:00.807Z,1.50
2022-08-10T15:12:32.139Z,1.02
2022-08-10T15:15:00.979Z,1.58
2022-08-10T15:20:20.294Z,1.20
2022-08-10T15:22:53.795Z,1.35
2022-08-10T15:25:26.212Z,1.20
2022-08-10T15:28:06.464Z,1.08
2022-08-10T15:30:43.159Z,1.10
2022-08-10T15:34:02.508Z,1.40
2022-08-10T15:36:40.847Z,1.10
2022-08-10T15:40:22.082Z,1.33
2022-08-10T15:42:18.523Z,1.25
2022-08-10T15:44:54.217Z,1.20
2022-08-10T15:47:44.992Z,1.25
2022-08-10T15:50:16.172Z,1.20
2022-08-10T15:53:00.644Z,1.13
2022-08-10T15:55:44.177Z,1.40
2022-08-10T15:58:39.218Z,1.10
2022-08-10T16:02:12.944Z,1.40
2022-08-10T16:04:19.404Z,1.10
2022-08-10T16:06:55.846Z,1.25
2022-08-10T16:10:23.252Z,1.40
2022-08-10T16:12:59.250Z,1.20
2022-08-10T16:15:27.448Z,1.38
2022-08-10T16:18:00.364Z,1.30
2022-08-10T16:20:31.356Z,1.27
2022-08-10T16:23:02.754Z,1.20
2022-08-10T16:25:48.274Z,1.05
2022-08-10T16:28:23.460Z,1.17
2022-08-10T16:30:54.227Z,1.30
2022-08-10T16:33:53.468Z,1.30
2022-08-10T16:36:16.833Z,1.10
2022-08-10T16:38:47.134Z,1.52
2022-08-10T16:42:02.667Z,1.52
2022-08-10T16:44:05.403Z,1.43
2022-08-10T16:46:34.361Z,1.23
2022-08-10T16:49:02.380Z,1.00
2022-08-10T16:51:31.026Z,1.23
2022-08-10T16:54:01.620Z,1.10
2022-08-10T16:56:34.534Z,1.00
2022-08-10T16:59:21.120Z,1.35
2022-08-10T17:01:54.413Z,1.13
2022-08-10T17:04:23.686Z,1.88
2022-08-10T17:06:57.334Z,1.33
2022-08-10T17:09:31.998Z,1.02
2022-08-10T17:12:05.462Z,1.30
2022-08-10T17:14:32.483Z,1.20
2022-08-10T17:17:21.860Z,1.35
2022-08-10T17:22:20.318Z,1.42
2022-08-10T17:24:53.103Z,1.25
2022-08-10T17:28:04.881Z,1.20
2022-08-10T17:30:15.874Z,1.20
2022-08-10T17:32:59.121Z,1.27
2022-08-10T17:35:35.017Z,1.20
2022-08-10T17:38:17.905Z,1.17
2022-08-10T17:40:49.977Z,1.05
2022-08-10T17:43:57.781Z,0.95
2022-08-10T17:46:11.954Z,1.50
2022-08-10T17:51:14.099Z,1.13
2022-08-10T17:53:51.226Z,1.50
2022-08-10T17:56:20.933Z,1.60
2022-08-10T17:58:58.751Z,1.13
2022-08-10T18:01:40.446Z,1.20
2022-08-10T18:04:15.412Z,1.20
2022-08-10T18:06:44.088Z,1.50
2022-08-10T18:09:24.549Z,1.20
2022-08-10T18:12:01.047Z,1.40
2022-08-10T18:14:33.577Z,1.85
2022-08-10T18:17:09.289Z,1.40
2022-08-10T18:19:38.667Z,1.15
2022-08-10T18:22:06.477Z,1.58
2022-08-10T18:24:37.122Z,1.42
2022-08-10T18:27:06.446Z,1.48
2022-08-10T18:29:38.121Z,1.38
2022-08-10T18:32:07.619Z,1.27
2022-08-10T18:34:36.720Z,1.42
2022-08-10T18:37:09.122Z,1.10
2022-08-10T18:40:08.593Z,1.42
2022-08-10T18:45:38.969Z,1.63
2022-08-10T18:49:23.015Z,1.75
2022-08-10T18:52:11.533Z,1.48
2022-08-10T19:19:51.384Z,2.28
2022-08-10T19:22:50.728Z,3.10
2022-08-10T19:28:57.865Z,2.60
2022-08-10T19:31:50.239Z,2.60
2022-08-10T19:35:06.164Z,2.80
2022-08-10T19:46:02.432Z,4.00
2022-08-10T19:51:26.092Z,3.80
2022-08-10T19:54:16.416Z,4.18
2022-08-10T19:57:31.531Z,4.32
2022-08-10T20:00:24.175Z,4.28
2022-08-10T20:03:13.668Z,3.85
2022-08-10T20:06:12.996Z,3.47
2022-08-10T20:08:46.491Z,3.38
2022-08-10T20:11:47.150Z,3.70
2022-08-10T20:14:21.216Z,4.82
2022-08-10T20:16:55.895Z,4.47
2022-08-10T20:19:53.198Z,4.40
2022-08-10T20:47:03.227Z,3.75
2022-08-10T21:22:25.584Z,2.97
2022-08-10T21:25:06.853Z,2.83
2022-08-10T21:27:59.643Z,2.67
2022-08-10T21:30:51.163Z,2.38
2022-08-10T21:33:41.345Z,2.72
2022-08-10T21:36:22.778Z,2.80
2022-08-10T21:39:09.921Z,2.70
2022-08-10T21:45:59.103Z,2.25
2022-08-10T21:48:57.867Z,2.88
2022-08-10T21:52:09.895Z,2.72
2022-08-10T21:55:16.828Z,2.50
2022-08-10T21:58:15.770Z,2.58
2022-08-10T22:04:19.231Z,2.90
2022-08-10T22:07:09.076Z,2.80
2022-08-10T22:09:59.746Z,3.00
2022-08-10T22:12:56.758Z,3.28
2022-08-10T22:16:10.718Z,2.92
2022-08-10T22:19:02.149Z,2.78
2022-08-10T22:22:04.500Z,3.40
2022-08-10T22:25:17.600Z,2.88
2022-08-10T22:28:17.669Z,3.20
2022-08-10T22:31:31.737Z,2.67
2022-08-10T22:35:02.802Z,2.85
2022-08-10T22:37:50.795Z,2.85
2022-08-10T22:40:43.777Z,2.95
2022-08-10T22:43:40.760Z,3.42
2022-08-10T22:46:37.803Z,3.08
2022-08-10T22:49:05.157Z,2.97
2022-08-10T22:52:01.357Z,2.40
2022-08-10T22:54:52.533Z,3.25
2022-08-10T22:57:48.719Z,3.13
2022-08-10T23:03:42.436Z,3.35
2022-08-10T23:06:17.412Z,3.03
2022-08-10T23:08:50.173Z,3.33
2022-08-10T23:11:23.820Z,3.70
2022-08-10T23:13:57.649Z,3.08
2022-08-10T23:16:46.939Z,3.50
2022-08-10T23:19:20.867Z,3.40
2022-08-10T23:22:11.830Z,3.28
2022-08-10T23:24:45.006Z,3.28
2022-08-10T23:27:37.901Z,3.50
2022-08-10T23:32:44.211Z,3.20
2022-08-10T23:36:28.094Z,3.50
2022-08-10T23:38:03.561Z,3.17
2022-08-10T23:40:31.441Z,3.30
2022-08-10T23:43:14.918Z,3.08
2022-08-10T23:45:53.398Z,3.63
2022-08-10T23:48:25.247Z,3.65
2022-08-10T23:50:59.638Z,3.40
2022-08-10T23:53:30.313Z,3.40
2022-08-10T23:56:25.132Z,3.65
2022-08-10T23:58:56.007Z,3.15
